Terminal Aerodrome Forecast
Issued by NWS Omaha/Valley, NE

Home | Current Version | Previous Version | Text Only | Print | Product List | Glossary Off
Versions: 1 2 3 4 5 6 7 8 9 10 11 12 13 14 15 16 17 18 19 20 21 22 23 24 25 26 27 28 29 30 31 32 33 34 35 36 37 38 39 40

774
FTUS43 KOAX 141740
TAFOFK
TAF
KOFK 141740Z 1418/1518 21008KT P6SM OVC010
     FM142000 23012KT P6SM -SN BKN020 OVC040
     FM142100 25009KT 5SM -SN BKN015 OVC030
     FM142300 30010KT 3SM -SN OVC009
     FM150100 33014G20KT P6SM -SN BKN018
     FM150300 34018G20KT P6SM BKN022=

USA.gov is the U.S. government's official web portal to all federal, state and local government web resources and services.